createdAt,value
2022-08-07T00:02:35.181Z,1.13
2022-08-07T00:04:09.250Z,1.00
2022-08-07T00:06:45.573Z,1.33
2022-08-07T00:09:22.258Z,1.20
2022-08-07T00:11:55.861Z,1.40
2022-08-07T00:14:30.158Z,1.30
2022-08-07T00:17:01.904Z,1.00
2022-08-07T00:20:00.581Z,1.10
2022-08-07T00:22:24.917Z,1.90
2022-08-07T00:25:05.131Z,1.30
2022-08-07T00:27:52.995Z,1.47
2022-08-07T00:30:27.149Z,0.90
2022-08-07T00:32:58.682Z,1.07
2022-08-07T00:35:29.712Z,1.17
2022-08-07T00:37:59.774Z,1.10
2022-08-07T00:40:36.606Z,1.30
2022-08-07T00:43:10.558Z,1.40
2022-08-07T00:45:59.525Z,1.23
2022-08-07T00:48:31.843Z,1.17
2022-08-07T00:51:02.718Z,1.20
2022-08-07T00:53:39.019Z,1.10
2022-08-07T00:56:19.826Z,1.37
2022-08-07T00:58:50.150Z,1.47
2022-08-07T01:01:20.347Z,1.20
2022-08-07T01:03:56.150Z,1.43
2022-08-07T01:06:29.190Z,1.13
2022-08-07T01:09:01.104Z,1.40
2022-08-07T01:12:10.025Z,1.00
2022-08-07T01:14:21.309Z,1.23
2022-08-07T01:16:57.518Z,1.20
2022-08-07T01:19:32.503Z,1.20
2022-08-07T01:22:03.918Z,1.00
2022-08-07T01:24:38.038Z,1.30
2022-08-07T01:27:17.702Z,1.20
2022-08-07T01:29:48.698Z,1.60
2022-08-07T01:32:19.612Z,1.37
2022-08-07T01:34:51.859Z,1.47
2022-08-07T01:37:22.081Z,1.37
2022-08-07T01:39:50.822Z,1.40
2022-08-07T01:42:37.750Z,1.70
2022-08-07T01:45:10.113Z,1.30
2022-08-07T01:48:20.351Z,1.30
2022-08-07T01:50:42.950Z,1.43
2022-08-07T01:53:20.635Z,1.43
2022-08-07T01:55:52.159Z,1.40
2022-08-07T01:58:29.706Z,1.30
2022-08-07T02:01:10.046Z,1.17
2022-08-07T02:03:58.940Z,1.20
2022-08-07T02:06:31.635Z,1.03
2022-08-07T02:09:05.361Z,1.57
2022-08-07T02:12:03.482Z,1.10
2022-08-07T02:14:40.262Z,1.20
2022-08-07T02:17:11.246Z,0.93
2022-08-07T02:20:07.120Z,1.50
2022-08-07T02:22:33.560Z,2.10
2022-08-07T02:25:07.169Z,1.10
2022-08-07T02:27:51.222Z,1.60
2022-08-07T02:30:21.898Z,1.07
2022-08-07T02:33:03.811Z,1.20
2022-08-07T02:36:29.286Z,1.30
2022-08-07T02:38:32.210Z,1.30
2022-08-07T02:41:03.858Z,1.23
2022-08-07T02:43:34.505Z,1.27
2022-08-07T02:46:05.546Z,1.03
2022-08-07T02:48:34.655Z,1.30
2022-08-07T02:51:29.235Z,1.10
2022-08-07T02:53:59.036Z,1.40
2022-08-07T02:56:32.638Z,1.13
2022-08-07T02:59:04.982Z,1.40
2022-08-07T03:01:36.612Z,1.50
2022-08-07T03:04:12.481Z,1.23
2022-08-07T03:06:46.041Z,1.17
2022-08-07T03:09:43.628Z,1.40
2022-08-07T03:12:19.186Z,1.50
2022-08-07T03:14:52.108Z,1.47
2022-08-07T03:17:22.061Z,1.53
2022-08-07T03:19:54.777Z,1.57
2022-08-07T03:22:30.190Z,1.23
2022-08-07T03:25:00.742Z,1.37
2022-08-07T03:27:58.711Z,1.50
2022-08-07T03:30:20.532Z,1.40
2022-08-07T03:32:58.810Z,1.30
2022-08-07T03:35:43.807Z,1.63
2022-08-07T03:38:20.927Z,1.33
2022-08-07T03:40:57.215Z,1.70
2022-08-07T03:43:32.920Z,1.50
2022-08-07T03:46:03.853Z,1.40
2022-08-07T03:48:45.279Z,1.23
2022-08-07T03:51:31.046Z,1.40
2022-08-07T03:54:36.096Z,1.50
2022-08-07T03:57:07.308Z,1.30
2022-08-07T03:59:46.633Z,1.50
2022-08-07T04:02:27.440Z,1.50
2022-08-07T04:04:56.198Z,1.33
2022-08-07T04:07:26.173Z,1.37
2022-08-07T04:10:05.517Z,1.47
2022-08-07T04:12:35.248Z,1.50
2022-08-07T04:15:05.777Z,2.30
2022-08-07T04:18:30.769Z,1.73
2022-08-07T04:20:23.328Z,1.80
2022-08-07T04:23:01.288Z,1.27
2022-08-07T04:25:31.471Z,1.20
2022-08-07T04:28:08.577Z,1.90
2022-08-07T04:30:55.142Z,1.23
2022-08-07T04:33:25.243Z,1.50
2022-08-07T04:35:54.293Z,1.57
2022-08-07T04:38:23.164Z,1.67
2022-08-07T04:40:56.547Z,1.70
2022-08-07T04:44:12.689Z,1.67
2022-08-07T04:46:34.519Z,1.83
2022-08-07T04:49:17.997Z,1.50
2022-08-07T04:52:12.635Z,2.10
2022-08-07T04:54:50.527Z,1.53
2022-08-07T04:58:16.494Z,1.53
2022-08-07T05:00:30.089Z,1.63
2022-08-07T05:03:59.777Z,2.30
2022-08-07T05:06:19.279Z,2.40
2022-08-07T05:09:00.574Z,1.47
2022-08-07T05:11:56.914Z,1.73
2022-08-07T05:14:52.256Z,2.10
2022-08-07T05:17:50.796Z,2.07
2022-08-07T05:20:12.869Z,1.80
2022-08-07T05:22:43.067Z,2.20
2022-08-07T05:25:26.157Z,1.60
2022-08-07T05:28:20.096Z,1.80
2022-08-07T05:30:52.475Z,1.80
2022-08-07T05:33:22.285Z,1.70
2022-08-07T05:35:55.149Z,1.70
2022-08-07T05:38:59.413Z,1.43
2022-08-07T05:41:15.800Z,1.77
2022-08-07T05:44:12.089Z,1.60
2022-08-07T05:46:39.379Z,1.10
2022-08-07T05:49:12.341Z,1.53
2022-08-07T05:51:46.565Z,1.47
2022-08-07T05:54:30.928Z,1.50
2022-08-07T05:57:06.945Z,1.17
2022-08-07T05:59:57.282Z,1.10
2022-08-07T06:02:30.704Z,1.30
2022-08-07T06:05:03.933Z,1.43
2022-08-07T06:08:09.183Z,1.63
2022-08-07T06:10:24.501Z,1.60
2022-08-07T06:12:53.375Z,1.40
2022-08-07T06:15:39.439Z,1.60
2022-08-07T06:18:13.899Z,1.60
2022-08-07T06:20:50.291Z,1.30
2022-08-07T06:24:37.118Z,1.47
2022-08-07T06:26:27.573Z,1.27
2022-08-07T06:29:01.103Z,1.60
2022-08-07T06:31:46.858Z,1.03
2022-08-07T06:34:19.537Z,1.40
2022-08-07T06:36:48.406Z,1.27
2022-08-07T06:40:15.903Z,1.40
2022-08-07T06:42:15.739Z,1.30
2022-08-07T06:44:45.864Z,1.10
2022-08-07T06:47:20.923Z,1.40
2022-08-07T06:49:51.644Z,1.20
2022-08-07T06:52:32.038Z,1.20
2022-08-07T06:55:32.757Z,0.90
2022-08-07T06:58:00.854Z,1.53
2022-08-07T07:00:33.286Z,1.07
2022-08-07T07:03:08.647Z,1.23
2022-08-07T07:06:04.236Z,1.60
2022-08-07T07:08:28.998Z,1.27
2022-08-07T07:10:59.188Z,1.00
2022-08-07T07:13:41.634Z,1.63
2022-08-07T07:16:27.590Z,1.37
2022-08-07T07:19:54.463Z,1.10
2022-08-07T07:22:05.454Z,1.50
2022-08-07T07:24:56.737Z,1.30
2022-08-07T07:27:35.561Z,1.63
2022-08-07T07:30:38.639Z,1.23
2022-08-07T07:33:11.965Z,1.40
2022-08-07T07:36:04.103Z,1.47
2022-08-07T07:38:34.897Z,1.10
2022-08-07T07:41:08.748Z,1.50
2022-08-07T07:44:14.219Z,1.30
2022-08-07T07:46:40.150Z,1.80
2022-08-07T07:50:32.770Z,1.97
2022-08-07T07:52:16.985Z,1.27
2022-08-07T07:54:50.771Z,1.20
2022-08-07T07:57:43.977Z,1.43
2022-08-07T08:00:14.966Z,1.20
2022-08-07T08:03:06.032Z,1.57
2022-08-07T08:05:50.448Z,1.80
2022-08-07T08:08:34.481Z,1.33
2022-08-07T08:11:08.641Z,1.13
2022-08-07T08:13:53.848Z,1.00
2022-08-07T08:16:31.211Z,1.30
2022-08-07T08:19:17.636Z,1.63
2022-08-07T08:22:10.634Z,1.10
2022-08-07T08:25:18.176Z,1.13
2022-08-07T08:27:56.640Z,0.97
2022-08-07T08:30:31.958Z,0.90
2022-08-07T08:33:15.053Z,0.70
2022-08-07T08:35:50.077Z,0.80
2022-08-07T08:38:29.281Z,0.70
2022-08-07T08:41:08.968Z,0.77
2022-08-07T08:43:56.248Z,0.87
2022-08-07T08:46:40.531Z,0.80
2022-08-07T08:49:32.740Z,1.20
2022-08-07T08:52:12.607Z,0.70
2022-08-07T08:54:48.382Z,1.13
2022-08-07T08:57:24.176Z,0.90
2022-08-07T09:00:00.357Z,0.97
2022-08-07T09:02:38.023Z,1.00
2022-08-07T09:05:36.754Z,1.40
2022-08-07T09:08:28.135Z,1.27
2022-08-07T09:11:14.052Z,0.97
2022-08-07T09:14:06.168Z,0.83
2022-08-07T09:16:49.641Z,0.90
2022-08-07T09:19:50.786Z,1.17
2022-08-07T09:24:29.364Z,0.90
2022-08-07T09:25:43.359Z,0.93
2022-08-07T09:30:04.470Z,1.00
2022-08-07T09:31:33.593Z,0.90
2022-08-07T09:34:14.471Z,1.00
2022-08-07T09:36:51.911Z,1.07
2022-08-07T09:39:55.249Z,0.70
2022-08-07T09:42:38.939Z,0.87
2022-08-07T09:47:23.828Z,1.00
2022-08-07T09:48:19.228Z,1.20
2022-08-07T09:51:26.128Z,0.93
2022-08-07T09:54:02.880Z,1.00
2022-08-07T09:57:07.886Z,1.40
2022-08-07T10:00:03.027Z,0.90
2022-08-07T10:03:08.433Z,0.80
2022-08-07T10:06:26.842Z,0.80
2022-08-07T10:09:34.237Z,0.90
2022-08-07T10:12:26.127Z,1.00
2022-08-07T10:15:24.782Z,0.87
2022-08-07T10:18:12.090Z,0.83
2022-08-07T10:20:50.341Z,1.00
2022-08-07T10:24:08.621Z,0.70
2022-08-07T10:26:52.983Z,1.03
2022-08-07T10:29:54.507Z,0.90
2022-08-07T10:32:53.596Z,0.70
2022-08-07T10:35:55.854Z,0.97
2022-08-07T10:38:36.214Z,0.97
2022-08-07T10:41:47.108Z,1.10
2022-08-07T10:44:28.715Z,1.00
2022-08-07T10:47:17.854Z,1.00
2022-08-07T10:49:55.409Z,2.60
2022-08-07T10:52:34.047Z,0.90
2022-08-07T10:55:26.937Z,1.00
2022-08-07T10:58:16.779Z,0.90
2022-08-07T11:00:59.025Z,1.17
2022-08-07T11:03:54.845Z,0.90
2022-08-07T11:06:33.237Z,0.90
2022-08-07T11:09:11.533Z,1.00
2022-08-07T11:11:51.602Z,1.03
2022-08-07T11:14:56.875Z,0.77
2022-08-07T11:17:23.327Z,0.80
2022-08-07T11:20:13.064Z,1.00
2022-08-07T11:22:50.498Z,1.10
2022-08-07T11:25:24.222Z,0.70
2022-08-07T11:28:04.364Z,0.90
2022-08-07T11:30:44.264Z,1.03
2022-08-07T11:33:48.768Z,1.00
2022-08-07T11:36:20.556Z,0.93
2022-08-07T11:39:06.800Z,0.77
2022-08-07T11:42:02.132Z,0.83
2022-08-07T11:44:52.736Z,1.00
2022-08-07T11:47:55.962Z,0.90
2022-08-07T11:50:57.998Z,0.93
2022-08-07T11:53:43.052Z,0.70
2022-08-07T11:56:37.628Z,1.10
2022-08-07T12:00:12.045Z,0.90
2022-08-07T12:02:30.263Z,0.73
2022-08-07T12:05:15.495Z,1.00
2022-08-07T12:08:03.772Z,0.90
2022-08-07T12:10:41.653Z,0.80
2022-08-07T12:13:18.630Z,1.10
2022-08-07T12:16:09.191Z,0.80
2022-08-07T12:18:45.581Z,0.93
2022-08-07T12:21:55.739Z,1.00
2022-08-07T12:24:37.446Z,1.10
2022-08-07T12:27:15.940Z,0.80
2022-08-07T12:29:52.849Z,0.70
2022-08-07T12:32:28.952Z,1.10
2022-08-07T12:35:00.980Z,0.97
2022-08-07T12:38:11.306Z,0.83
2022-08-07T12:40:47.697Z,1.07
2022-08-07T12:44:01.849Z,0.93
2022-08-07T12:46:32.297Z,0.87
2022-08-07T12:49:25.416Z,2.43
2022-08-07T12:52:12.279Z,1.33
2022-08-07T12:54:55.991Z,0.80
2022-08-07T12:57:38.733Z,0.90
2022-08-07T13:00:16.442Z,0.90
2022-08-07T13:03:09.421Z,0.90
2022-08-07T13:05:59.769Z,1.03
2022-08-07T13:08:52.667Z,1.20
2022-08-07T13:12:02.699Z,1.07
2022-08-07T13:14:46.868Z,1.13
2022-08-07T13:17:39.701Z,1.00
2022-08-07T13:20:21.762Z,1.13
2022-08-07T13:23:09.710Z,1.37
2022-08-07T13:26:03.903Z,1.00
2022-08-07T13:28:42.593Z,1.00
2022-08-07T13:31:18.521Z,1.37
2022-08-07T13:34:30.161Z,1.17
2022-08-07T13:36:46.288Z,0.83
2022-08-07T13:39:49.109Z,1.20
2022-08-07T13:42:21.388Z,1.00
2022-08-07T13:46:07.022Z,0.87
2022-08-07T13:48:07.697Z,0.80
2022-08-07T13:50:55.570Z,1.00
2022-08-07T13:53:30.112Z,1.00
2022-08-07T13:56:20.699Z,1.00
2022-08-07T13:59:12.104Z,1.30
2022-08-07T14:01:51.005Z,1.20
2022-08-07T14:04:29.961Z,1.20
2022-08-07T14:07:09.165Z,1.10
2022-08-07T14:10:14.986Z,1.20
2022-08-07T14:12:41.853Z,1.17
2022-08-07T14:15:31.836Z,1.00
2022-08-07T14:18:16.121Z,0.80
2022-08-07T14:21:00.361Z,1.17
2022-08-07T14:24:00.425Z,1.00
2022-08-07T14:26:34.257Z,1.53
2022-08-07T14:30:07.734Z,1.10
2022-08-07T14:32:02.555Z,1.00
2022-08-07T14:34:48.836Z,0.90
2022-08-07T14:37:19.435Z,1.00
2022-08-07T14:40:16.827Z,1.40
2022-08-07T14:43:01.504Z,1.10
2022-08-07T14:45:50.264Z,1.50
2022-08-07T14:48:21.960Z,0.90
2022-08-07T14:54:10.016Z,1.27
2022-08-07T14:56:44.666Z,0.80
2022-08-07T15:00:03.759Z,0.80
2022-08-07T15:02:33.137Z,1.10
2022-08-07T15:07:53.430Z,0.90
2022-08-07T15:10:25.066Z,1.30
2022-08-07T15:13:12.359Z,1.10
2022-08-07T15:15:52.859Z,1.23
2022-08-07T15:18:28.845Z,0.90
2022-08-07T15:25:13.546Z,1.00
2022-08-07T15:26:52.135Z,1.27
2022-08-07T15:32:14.036Z,1.10
2022-08-07T15:34:50.662Z,1.37
2022-08-07T15:37:29.576Z,1.27
2022-08-07T15:40:34.843Z,0.90
2022-08-07T15:43:53.297Z,1.17
2022-08-07T15:46:32.284Z,0.90
2022-08-07T15:49:13.071Z,0.93
2022-08-07T15:54:39.678Z,2.90
2022-08-07T15:57:40.028Z,0.93
2022-08-07T16:00:04.098Z,0.90
2022-08-07T16:02:46.911Z,1.00
2022-08-07T16:05:23.120Z,0.80
2022-08-07T16:08:31.006Z,1.10
2022-08-07T16:11:01.071Z,0.90
2022-08-07T16:13:59.699Z,1.13
2022-08-07T16:16:49.706Z,1.40
2022-08-07T16:19:59.715Z,1.00
2022-08-07T16:22:57.440Z,1.00
2022-08-07T16:25:52.309Z,1.13
2022-08-07T16:30:07.536Z,1.10
2022-08-07T16:31:51.564Z,1.17
2022-08-07T16:34:37.742Z,0.97
2022-08-07T16:38:06.926Z,0.97
2022-08-07T16:41:15.445Z,1.10
2022-08-07T16:44:47.486Z,1.00
2022-08-07T16:47:56.587Z,1.20
2022-08-07T16:51:21.635Z,1.20
2022-08-07T16:54:08.690Z,1.07
2022-08-07T16:56:56.670Z,1.27
2022-08-07T16:59:45.832Z,1.00
2022-08-07T17:02:51.549Z,1.30
2022-08-07T17:06:26.623Z,1.70
2022-08-07T17:09:08.877Z,1.20
2022-08-07T17:12:02.037Z,1.80
2022-08-07T17:14:33.430Z,1.00
2022-08-07T17:17:07.514Z,1.40
2022-08-07T17:20:02.432Z,1.10
2022-08-07T17:22:36.409Z,1.10
2022-08-07T17:25:15.122Z,1.00
2022-08-07T17:27:56.777Z,0.87
2022-08-07T17:30:33.359Z,1.30
2022-08-07T17:34:09.216Z,1.20
2022-08-07T17:36:19.941Z,1.20
2022-08-07T17:38:57.961Z,1.13
2022-08-07T17:42:02.104Z,0.97
2022-08-07T17:44:33.873Z,1.13
2022-08-07T17:47:16.836Z,1.10
2022-08-07T17:50:16.678Z,1.73
2022-08-07T17:52:55.277Z,2.00
2022-08-07T17:56:00.953Z,1.40
2022-08-07T17:58:31.253Z,1.47
2022-08-07T18:01:20.509Z,1.30
2022-08-07T18:04:08.084Z,1.40
2022-08-07T18:07:19.069Z,1.10
2022-08-07T18:10:05.150Z,1.30
2022-08-07T18:12:42.859Z,1.40
2022-08-07T18:15:20.195Z,1.23
2022-08-07T18:18:45.568Z,1.10
2022-08-07T18:21:06.658Z,1.20
2022-08-07T18:23:58.234Z,1.17
2022-08-07T18:26:48.077Z,1.67
2022-08-07T18:30:06.027Z,2.40
2022-08-07T18:32:29.274Z,1.23
2022-08-07T18:35:12.931Z,1.10
2022-08-07T18:38:55.109Z,1.23
2022-08-07T18:41:09.076Z,1.10
2022-08-07T18:43:57.395Z,2.07
2022-08-07T18:46:35.818Z,1.70
2022-08-07T18:50:31.270Z,1.43
2022-08-07T18:52:40.984Z,2.13
2022-08-07T18:55:41.134Z,14.30
2022-08-07T18:58:32.969Z,31.40
2022-08-07T19:01:37.172Z,21.10
2022-08-07T19:04:09.540Z,21.87
2022-08-07T19:06:51.354Z,16.50
2022-08-07T19:09:55.596Z,4.80
2022-08-07T19:12:26.235Z,2.00
2022-08-07T19:16:02.416Z,1.80
2022-08-07T19:18:34.665Z,1.80
2022-08-07T19:21:51.101Z,1.60
2022-08-07T19:24:10.217Z,1.33
2022-08-07T19:27:10.324Z,1.50
2022-08-07T19:30:55.870Z,1.87
2022-08-07T19:32:36.940Z,1.50
2022-08-07T19:35:17.871Z,1.80
2022-08-07T19:37:56.475Z,2.03
2022-08-07T19:40:31.451Z,1.40
2022-08-07T19:43:10.706Z,1.70
2022-08-07T19:46:09.543Z,1.30
2022-08-07T19:48:42.410Z,1.50
2022-08-07T19:51:20.264Z,1.30
2022-08-07T19:54:30.887Z,1.53
2022-08-07T19:57:52.283Z,1.50
2022-08-07T19:59:46.741Z,2.20
2022-08-07T20:02:26.883Z,1.67
2022-08-07T20:04:57.973Z,1.80
2022-08-07T20:07:47.071Z,1.40
2022-08-07T20:10:35.616Z,1.37
2022-08-07T20:13:15.886Z,1.90
2022-08-07T20:15:55.304Z,1.60
2022-08-07T20:18:32.251Z,1.70
2022-08-07T20:21:14.900Z,1.73
2022-08-07T20:23:57.693Z,2.07
2022-08-07T20:26:44.865Z,1.17
2022-08-07T20:29:47.228Z,1.80
2022-08-07T20:32:11.562Z,1.60
2022-08-07T20:34:59.664Z,1.57
2022-08-07T20:37:34.256Z,1.80
2022-08-07T20:40:32.560Z,1.40
2022-08-07T20:43:09.573Z,1.80
2022-08-07T20:46:27.217Z,2.50
2022-08-07T20:48:37.353Z,1.87
2022-08-07T20:51:09.555Z,1.90
2022-08-07T20:54:03.913Z,1.80
2022-08-07T20:56:32.243Z,2.40
2022-08-07T21:00:04.559Z,2.00
2022-08-07T21:02:01.789Z,2.07
2022-08-07T21:04:33.354Z,1.40
2022-08-07T21:07:14.735Z,1.90
2022-08-07T21:09:52.437Z,1.77
2022-08-07T21:12:34.528Z,1.90
2022-08-07T21:15:18.730Z,2.17
2022-08-07T21:18:03.985Z,1.70
2022-08-07T21:20:48.022Z,3.00
2022-08-07T21:23:33.233Z,1.90
2022-08-07T21:26:09.282Z,2.07
2022-08-07T21:28:48.850Z,2.03
2022-08-07T21:31:49.508Z,1.93
2022-08-07T21:34:31.783Z,1.73
2022-08-07T21:37:07.057Z,2.40
2022-08-07T21:39:51.574Z,1.70
2022-08-07T21:42:49.303Z,1.97
2022-08-07T21:46:07.724Z,1.80
2022-08-07T21:48:28.492Z,1.90
2022-08-07T21:51:20.401Z,1.97
2022-08-07T21:53:56.064Z,2.00
2022-08-07T21:56:49.312Z,1.90
2022-08-07T22:00:02.878Z,2.00
2022-08-07T22:02:27.819Z,1.87
2022-08-07T22:05:03.411Z,1.80
2022-08-07T22:07:42.880Z,2.03
2022-08-07T22:10:32.745Z,2.00
2022-08-07T22:13:09.269Z,2.13
2022-08-07T22:16:41.189Z,2.10
2022-08-07T22:18:58.489Z,1.80
2022-08-07T22:22:04.984Z,2.17
2022-08-07T22:25:02.761Z,2.63
2022-08-07T22:28:07.450Z,2.17
2022-08-07T22:30:36.764Z,2.17
2022-08-07T22:33:09.397Z,2.00
2022-08-07T22:35:42.902Z,1.80
2022-08-07T22:38:25.791Z,1.60
2022-08-07T22:40:59.962Z,2.23
2022-08-07T22:43:37.461Z,2.20
2022-08-07T22:46:43.166Z,2.07
2022-08-07T22:49:39.503Z,1.67
2022-08-07T22:52:49.001Z,2.60
2022-08-07T22:55:49.392Z,1.97
2022-08-07T22:58:50.764Z,2.53
2022-08-07T23:01:59.207Z,2.13
2022-08-07T23:04:58.430Z,1.83
2022-08-07T23:07:44.944Z,2.00
2022-08-07T23:10:37.941Z,2.20
2022-08-07T23:13:48.415Z,2.23
2022-08-07T23:16:54.707Z,2.13
2022-08-07T23:19:51.646Z,2.50
2022-08-07T23:22:35.661Z,2.80
2022-08-07T23:25:18.818Z,2.07
2022-08-07T23:28:20.575Z,1.73
2022-08-07T23:31:13.694Z,2.17
2022-08-07T23:34:23.883Z,1.97
2022-08-07T23:37:19.610Z,2.17
2022-08-07T23:40:07.531Z,2.43
2022-08-07T23:42:53.367Z,2.27
2022-08-07T23:46:01.582Z,2.50
2022-08-07T23:48:42.028Z,2.27
2022-08-07T23:52:59.451Z,3.30
2022-08-07T23:54:20.017Z,1.87
2022-08-07T23:57:14.435Z,2.50
